sensor_id;sensor_type;location;lat;lon;timestamp;P1;durP1;ratioP1;P2;durP2;ratioP2
31596;SDS011;18201;50.978;7.034;2023-05-13T00:00:11;12.82;;;11.57;;
31596;SDS011;18201;50.978;7.034;2023-05-13T00:00:42;12.23;;;10.75;;
31596;SDS011;18201;50.978;7.034;2023-05-13T00:01:14;12.25;;;11.10;;
31596;SDS011;18201;50.978;7.034;2023-05-13T00:01:45;12.15;;;10.90;;
31596;SDS011;18201;50.978;7.034;2023-05-13T00:02:16;10.95;;;9.90;;
31596;SDS011;18201;50.978;7.034;2023-05-13T00:02:49;11.57;;;10.48;;
31596;SDS011;18201;50.978;7.034;2023-05-13T00:03:19;12.35;;;10.75;;
31596;SDS011;18201;50.978;7.034;2023-05-13T00:03:50;12.25;;;11.00;;
31596;SDS011;18201;50.978;7.034;2023-05-13T00:04:22;12.02;;;10.93;;
31596;SDS011;18201;50.978;7.034;2023-05-13T00:04:53;12.50;;;10.63;;
31596;SDS011;18201;50.978;7.034;2023-05-13T00:05:24;12.73;;;10.73;;
31596;SDS011;18201;50.978;7.034;2023-05-13T00:05:55;12.93;;;11.30;;
31596;SDS011;18201;50.978;7.034;2023-05-13T00:06:27;11.68;;;10.38;;
31596;SDS011;18201;50.978;7.034;2023-05-13T00:06:58;12.52;;;10.57;;
31596;SDS011;18201;50.978;7.034;2023-05-13T00:07:30;12.63;;;11.43;;
31596;SDS011;18201;50.978;7.034;2023-05-13T00:08:02;16.67;;;11.45;;
31596;SDS011;18201;50.978;7.034;2023-05-13T00:08:36;12.52;;;11.15;;
31596;SDS011;18201;50.978;7.034;2023-05-13T00:09:07;13.02;;;11.38;;
31596;SDS011;18201;50.978;7.034;2023-05-13T00:09:39;11.95;;;10.85;;
31596;SDS011;18201;50.978;7.034;2023-05-13T00:10:10;12.73;;;11.52;;
31596;SDS011;18201;50.978;7.034;2023-05-13T00:10:41;12.40;;;11.02;;
31596;SDS011;18201;50.978;7.034;2023-05-13T00:11:13;12.93;;;11.63;;
31596;SDS011;18201;50.978;7.034;2023-05-13T00:11:44;16.30;;;11.07;;
31596;SDS011;18201;50.978;7.034;2023-05-13T00:12:15;12.55;;;11.32;;
31596;SDS011;18201;50.978;7.034;2023-05-13T00:12:47;12.20;;;11.00;;
31596;SDS011;18201;50.978;7.034;2023-05-13T00:13:18;12.23;;;11.20;;
31596;SDS011;18201;50.978;7.034;2023-05-13T00:13:49;12.68;;;11.48;;
31596;SDS011;18201;50.978;7.034;2023-05-13T00:14:20;12.32;;;11.02;;
31596;SDS011;18201;50.978;7.034;2023-05-13T00:14:52;13.43;;;11.57;;
31596;SDS011;18201;50.978;7.034;2023-05-13T00:15:22;14.90;;;12.05;;
31596;SDS011;18201;50.978;7.034;2023-05-13T00:15:56;12.80;;;10.85;;
31596;SDS011;18201;50.978;7.034;2023-05-13T00:16:31;13.70;;;12.20;;
31596;SDS011;18201;50.978;7.034;2023-05-13T00:17:02;13.10;;;11.82;;
31596;SDS011;18201;50.978;7.034;2023-05-13T00:17:34;12.40;;;11.20;;
31596;SDS011;18201;50.978;7.034;2023-05-13T00:18:06;12.57;;;11.30;;
31596;SDS011;18201;50.978;7.034;2023-05-13T00:18:37;14.20;;;12.20;;
31596;SDS011;18201;50.978;7.034;2023-05-13T00:19:07;14.00;;;12.55;;
31596;SDS011;18201;50.978;7.034;2023-05-13T00:19:38;12.88;;;11.55;;
31596;SDS011;18201;50.978;7.034;2023-05-13T00:20:10;13.23;;;11.13;;
31596;SDS011;18201;50.978;7.034;2023-05-13T00:20:41;14.07;;;11.63;;
31596;SDS011;18201;50.978;7.034;2023-05-13T00:21:12;13.57;;;11.88;;
31596;SDS011;18201;50.978;7.034;2023-05-13T00:21:44;14.70;;;11.90;;
31596;SDS011;18201;50.978;7.034;2023-05-13T00:22:15;13.77;;;12.48;;
31596;SDS011;18201;50.978;7.034;2023-05-13T00:22:48;12.18;;;10.98;;
31596;SDS011;18201;50.978;7.034;2023-05-13T00:23:19;14.27;;;12.60;;
31596;SDS011;18201;50.978;7.034;2023-05-13T00:23:51;12.70;;;11.48;;
31596;SDS011;18201;50.978;7.034;2023-05-13T00:24:21;14.50;;;12.15;;
31596;SDS011;18201;50.978;7.034;2023-05-13T00:24:53;19.10;;;12.65;;
31596;SDS011;18201;50.978;7.034;2023-05-13T00:25:24;14.02;;;12.60;;
31596;SDS011;18201;50.978;7.034;2023-05-13T00:25:55;14.10;;;11.98;;
31596;SDS011;18201;50.978;7.034;2023-05-13T00:26:30;14.02;;;12.63;;
31596;SDS011;18201;50.978;7.034;2023-05-13T00:27:01;14.45;;;13.02;;
31596;SDS011;18201;50.978;7.034;2023-05-13T00:27:32;13.35;;;12.05;;
31596;SDS011;18201;50.978;7.034;2023-05-13T00:28:04;12.57;;;11.38;;
31596;SDS011;18201;50.978;7.034;2023-05-13T00:28:35;12.95;;;11.32;;
31596;SDS011;18201;50.978;7.034;2023-05-13T00:29:06;14.85;;;12.95;;
31596;SDS011;18201;50.978;7.034;2023-05-13T00:29:38;12.13;;;10.82;;
31596;SDS011;18201;50.978;7.034;2023-05-13T00:30:09;13.40;;;12.07;;
31596;SDS011;18201;50.978;7.034;2023-05-13T00:30:40;13.10;;;11.93;;
31596;SDS011;18201;50.978;7.034;2023-05-13T00:31:12;16.40;;;12.68;;
31596;SDS011;18201;50.978;7.034;2023-05-13T00:31:44;13.30;;;11.57;;
31596;SDS011;18201;50.978;7.034;2023-05-13T00:32:15;12.98;;;11.77;;
31596;SDS011;18201;50.978;7.034;2023-05-13T00:32:46;14.73;;;13.23;;
31596;SDS011;18201;50.978;7.034;2023-05-13T00:33:17;20.30;;;11.90;;
31596;SDS011;18201;50.978;7.034;2023-05-13T00:33:49;14.02;;;11.45;;
31596;SDS011;18201;50.978;7.034;2023-05-13T00:34:20;14.48;;;13.00;;
31596;SDS011;18201;50.978;7.034;2023-05-13T00:34:51;15.25;;;12.05;;
31596;SDS011;18201;50.978;7.034;2023-05-13T00:35:23;19.10;;;13.00;;
31596;SDS011;18201;50.978;7.034;2023-05-13T00:35:54;13.63;;;12.20;;
31596;SDS011;18201;50.978;7.034;2023-05-13T00:36:25;14.57;;;13.07;;
31596;SDS011;18201;50.978;7.034;2023-05-13T00:36:57;13.80;;;11.80;;
31596;SDS011;18201;50.978;7.034;2023-05-13T00:37:30;13.75;;;12.45;;
31596;SDS011;18201;50.978;7.034;2023-05-13T00:38:02;13.60;;;12.20;;
31596;SDS011;18201;50.978;7.034;2023-05-13T00:38:34;13.93;;;12.60;;
31596;SDS011;18201;50.978;7.034;2023-05-13T00:39:05;14.25;;;12.85;;
31596;SDS011;18201;50.978;7.034;2023-05-13T00:39:36;14.70;;;12.27;;
31596;SDS011;18201;50.978;7.034;2023-05-13T00:40:08;14.48;;;11.63;;
31596;SDS011;18201;50.978;7.034;2023-05-13T00:40:47;13.32;;;12.07;;
31596;SDS011;18201;50.978;7.034;2023-05-13T00:41:19;12.88;;;11.75;;
31596;SDS011;18201;50.978;7.034;2023-05-13T00:41:51;16.48;;;11.32;;
31596;SDS011;18201;50.978;7.034;2023-05-13T00:42:23;12.93;;;11.60;;
31596;SDS011;18201;50.978;7.034;2023-05-13T00:42:54;14.82;;;12.32;;
31596;SDS011;18201;50.978;7.034;2023-05-13T00:43:24;13.90;;;12.20;;
31596;SDS011;18201;50.978;7.034;2023-05-13T00:43:56;13.43;;;12.13;;
31596;SDS011;18201;50.978;7.034;2023-05-13T00:44:27;13.10;;;11.88;;
31596;SDS011;18201;50.978;7.034;2023-05-13T00:44:58;14.70;;;12.65;;
31596;SDS011;18201;50.978;7.034;2023-05-13T00:45:30;14.30;;;13.00;;
31596;SDS011;18201;50.978;7.034;2023-05-13T00:46:01;14.32;;;12.90;;
31596;SDS011;18201;50.978;7.034;2023-05-13T00:46:32;13.52;;;12.23;;
31596;SDS011;18201;50.978;7.034;2023-05-13T00:47:04;14.32;;;12.65;;
31596;SDS011;18201;50.978;7.034;2023-05-13T00:47:35;13.98;;;12.55;;
31596;SDS011;18201;50.978;7.034;2023-05-13T00:48:07;14.32;;;12.93;;
31596;SDS011;18201;50.978;7.034;2023-05-13T00:48:38;14.15;;;12.73;;
31596;SDS011;18201;50.978;7.034;2023-05-13T00:49:10;14.05;;;12.65;;
31596;SDS011;18201;50.978;7.034;2023-05-13T00:49:41;14.55;;;12.90;;
31596;SDS011;18201;50.978;7.034;2023-05-13T00:50:12;13.52;;;12.18;;
31596;SDS011;18201;50.978;7.034;2023-05-13T00:50:44;14.60;;;12.85;;
31596;SDS011;18201;50.978;7.034;2023-05-13T00:51:15;13.68;;;12.38;;
31596;SDS011;18201;50.978;7.034;2023-05-13T00:51:47;12.70;;;11.50;;
31596;SDS011;18201;50.978;7.034;2023-05-13T00:52:19;13.43;;;12.10;;
31596;SDS011;18201;50.978;7.034;2023-05-13T00:52:50;15.50;;;12.43;;
31596;SDS011;18201;50.978;7.034;2023-05-13T00:53:23;13.18;;;11.88;;
31596;SDS011;18201;50.978;7.034;2023-05-13T00:53:55;13.07;;;11.88;;
31596;SDS011;18201;50.978;7.034;2023-05-13T00:54:28;14.15;;;12.00;;
31596;SDS011;18201;50.978;7.034;2023-05-13T00:54:59;13.70;;;12.38;;
31596;SDS011;18201;50.978;7.034;2023-05-13T00:55:31;18.77;;;12.40;;
31596;SDS011;18201;50.978;7.034;2023-05-13T00:56:02;14.68;;;12.75;;
31596;SDS011;18201;50.978;7.034;2023-05-13T00:56:33;15.43;;;12.50;;
31596;SDS011;18201;50.978;7.034;2023-05-13T00:57:07;13.63;;;12.38;;
31596;SDS011;18201;50.978;7.034;2023-05-13T00:57:38;13.13;;;11.85;;
31596;SDS011;18201;50.978;7.034;2023-05-13T00:58:10;13.93;;;12.73;;
31596;SDS011;18201;50.978;7.034;2023-05-13T00:58:42;15.43;;;12.35;;
31596;SDS011;18201;50.978;7.034;2023-05-13T00:59:13;16.17;;;11.75;;
31596;SDS011;18201;50.978;7.034;2023-05-13T00:59:43;12.38;;;11.25;;
31596;SDS011;18201;50.978;7.034;2023-05-13T01:00:16;14.80;;;11.82;;
31596;SDS011;18201;50.978;7.034;2023-05-13T01:00:56;13.32;;;12.00;;
31596;SDS011;18201;50.978;7.034;2023-05-13T01:01:36;13.70;;;12.40;;
31596;SDS011;18201;50.978;7.034;2023-05-13T01:02:16;16.05;;;11.88;;
31596;SDS011;18201;50.978;7.034;2023-05-13T01:02:52;13.40;;;11.80;;
31596;SDS011;18201;50.978;7.034;2023-05-13T01:03:32;14.27;;;12.07;;
31596;SDS011;18201;50.978;7.034;2023-05-13T01:04:12;12.68;;;11.52;;
31596;SDS011;18201;50.978;7.034;2023-05-13T01:04:49;13.95;;;11.80;;
31596;SDS011;18201;50.978;7.034;2023-05-13T01:05:30;15.05;;;12.05;;
31596;SDS011;18201;50.978;7.034;2023-05-13T01:06:12;14.15;;;11.98;;
31596;SDS011;18201;50.978;7.034;2023-05-13T01:06:49;17.80;;;11.93;;
31596;SDS011;18201;50.978;7.034;2023-05-13T01:07:40;14.18;;;12.55;;
31596;SDS011;18201;50.978;7.034;2023-05-13T01:08:19;15.10;;;12.63;;
31596;SDS011;18201;50.978;7.034;2023-05-13T01:09:32;15.00;;;13.43;;
31596;SDS011;18201;50.978;7.034;2023-05-13T01:10:16;15.70;;;14.10;;
31596;SDS011;18201;50.978;7.034;2023-05-13T01:10:53;15.82;;;13.57;;
31596;SDS011;18201;50.978;7.034;2023-05-13T01:11:27;17.90;;;13.85;;
31596;SDS011;18201;50.978;7.034;2023-05-13T01:12:06;17.48;;;13.95;;
31596;SDS011;18201;50.978;7.034;2023-05-13T01:12:41;15.57;;;13.20;;
31596;SDS011;18201;50.978;7.034;2023-05-13T01:13:15;14.98;;;13.52;;
31596;SDS011;18201;50.978;7.034;2023-05-13T01:13:51;15.23;;;13.73;;
31596;SDS011;18201;50.978;7.034;2023-05-13T01:14:31;16.10;;;14.30;;
31596;SDS011;18201;50.978;7.034;2023-05-13T01:15:06;16.15;;;14.45;;
31596;SDS011;18201;50.978;7.034;2023-05-13T01:15:39;14.55;;;13.13;;
31596;SDS011;18201;50.978;7.034;2023-05-13T01:16:16;14.27;;;12.88;;
31596;SDS011;18201;50.978;7.034;2023-05-13T01:16:54;14.25;;;12.95;;
31596;SDS011;18201;50.978;7.034;2023-05-13T01:17:31;16.65;;;13.63;;
31596;SDS011;18201;50.978;7.034;2023-05-13T01:18:06;16.20;;;14.05;;
31596;SDS011;18201;50.978;7.034;2023-05-13T01:18:42;15.20;;;13.77;;
31596;SDS011;18201;50.978;7.034;2023-05-13T01:19:19;15.30;;;13.90;;
31596;SDS011;18201;50.978;7.034;2023-05-13T01:20:17;14.93;;;13.40;;
31596;SDS011;18201;50.978;7.034;2023-05-13T01:20:50;14.98;;;13.38;;
31596;SDS011;18201;50.978;7.034;2023-05-13T01:21:24;15.75;;;13.82;;
31596;SDS011;18201;50.978;7.034;2023-05-13T01:21:56;14.43;;;13.02;;
31596;SDS011;18201;50.978;7.034;2023-05-13T01:22:27;17.73;;;13.07;;
31596;SDS011;18201;50.978;7.034;2023-05-13T01:22:58;16.00;;;14.13;;
31596;SDS011;18201;50.978;7.034;2023-05-13T01:23:30;16.55;;;12.95;;
31596;SDS011;18201;50.978;7.034;2023-05-13T01:25:51;14.35;;;12.15;;
31596;SDS011;18201;50.978;7.034;2023-05-13T01:26:22;16.58;;;13.38;;
31596;SDS011;18201;50.978;7.034;2023-05-13T01:26:55;15.10;;;13.45;;
31596;SDS011;18201;50.978;7.034;2023-05-13T01:27:26;13.60;;;12.32;;
31596;SDS011;18201;50.978;7.034;2023-05-13T01:27:57;16.33;;;13.20;;
31596;SDS011;18201;50.978;7.034;2023-05-13T01:28:30;16.13;;;12.82;;
31596;SDS011;18201;50.978;7.034;2023-05-13T01:29:01;14.27;;;12.95;;
31596;SDS011;18201;50.978;7.034;2023-05-13T01:29:31;14.43;;;12.93;;
31596;SDS011;18201;50.978;7.034;2023-05-13T01:30:04;16.52;;;12.88;;
31596;SDS011;18201;50.978;7.034;2023-05-13T01:30:36;14.90;;;12.75;;
31596;SDS011;18201;50.978;7.034;2023-05-13T01:31:07;13.65;;;12.35;;
31596;SDS011;18201;50.978;7.034;2023-05-13T01:31:40;14.50;;;12.60;;
31596;SDS011;18201;50.978;7.034;2023-05-13T01:32:11;12.98;;;11.77;;
31596;SDS011;18201;50.978;7.034;2023-05-13T01:32:43;14.40;;;13.00;;
31596;SDS011;18201;50.978;7.034;2023-05-13T01:33:15;15.30;;;13.60;;
31596;SDS011;18201;50.978;7.034;2023-05-13T01:33:47;14.32;;;12.90;;
31596;SDS011;18201;50.978;7.034;2023-05-13T01:34:20;13.98;;;12.68;;
31596;SDS011;18201;50.978;7.034;2023-05-13T01:34:52;18.77;;;13.57;;
31596;SDS011;18201;50.978;7.034;2023-05-13T01:35:24;15.30;;;12.23;;
31596;SDS011;18201;50.978;7.034;2023-05-13T01:35:58;24.17;;;13.98;;
31596;SDS011;18201;50.978;7.034;2023-05-13T01:36:31;13.73;;;12.32;;
31596;SDS011;18201;50.978;7.034;2023-05-13T01:37:02;13.57;;;12.25;;
31596;SDS011;18201;50.978;7.034;2023-05-13T01:37:35;14.98;;;11.90;;
31596;SDS011;18201;50.978;7.034;2023-05-13T01:38:06;14.32;;;12.88;;
31596;SDS011;18201;50.978;7.034;2023-05-13T01:38:38;13.73;;;12.25;;
31596;SDS011;18201;50.978;7.034;2023-05-13T01:39:11;19.30;;;13.98;;
31596;SDS011;18201;50.978;7.034;2023-05-13T01:39:42;14.45;;;11.57;;
31596;SDS011;18201;50.978;7.034;2023-05-13T01:40:14;14.95;;;12.43;;
31596;SDS011;18201;50.978;7.034;2023-05-13T01:40:46;12.55;;;10.82;;
31596;SDS011;18201;50.978;7.034;2023-05-13T01:41:17;13.95;;;12.27;;
31596;SDS011;18201;50.978;7.034;2023-05-13T01:41:48;14.57;;;12.13;;
31596;SDS011;18201;50.978;7.034;2023-05-13T01:42:19;14.35;;;12.63;;
31596;SDS011;18201;50.978;7.034;2023-05-13T01:42:51;14.95;;;13.23;;
31596;SDS011;18201;50.978;7.034;2023-05-13T01:43:22;14.05;;;12.43;;
31596;SDS011;18201;50.978;7.034;2023-05-13T01:43:53;14.38;;;12.98;;
31596;SDS011;18201;50.978;7.034;2023-05-13T01:44:25;14.23;;;12.38;;
31596;SDS011;18201;50.978;7.034;2023-05-13T01:44:56;14.00;;;12.38;;
31596;SDS011;18201;50.978;7.034;2023-05-13T01:45:27;12.38;;;11.27;;
31596;SDS011;18201;50.978;7.034;2023-05-13T01:45:59;17.35;;;12.93;;
31596;SDS011;18201;50.978;7.034;2023-05-13T01:46:31;13.50;;;12.18;;
31596;SDS011;18201;50.978;7.034;2023-05-13T01:47:02;16.60;;;12.75;;
31596;SDS011;18201;50.978;7.034;2023-05-13T01:47:33;14.73;;;12.32;;
31596;SDS011;18201;50.978;7.034;2023-05-13T01:48:04;13.25;;;11.95;;
31596;SDS011;18201;50.978;7.034;2023-05-13T01:48:36;13.32;;;11.07;;
31596;SDS011;18201;50.978;7.034;2023-05-13T01:49:07;14.05;;;12.65;;
31596;SDS011;18201;50.978;7.034;2023-05-13T01:49:39;14.90;;;13.35;;
31596;SDS011;18201;50.978;7.034;2023-05-13T01:50:10;13.98;;;12.70;;
31596;SDS011;18201;50.978;7.034;2023-05-13T01:50:41;13.38;;;12.13;;
31596;SDS011;18201;50.978;7.034;2023-05-13T01:51:12;13.25;;;12.05;;
31596;SDS011;18201;50.978;7.034;2023-05-13T01:51:45;13.20;;;11.85;;
31596;SDS011;18201;50.978;7.034;2023-05-13T01:52:17;13.93;;;12.23;;
31596;SDS011;18201;50.978;7.034;2023-05-13T01:52:48;14.77;;;13.10;;
31596;SDS011;18201;50.978;7.034;2023-05-13T01:53:19;13.75;;;12.32;;
31596;SDS011;18201;50.978;7.034;2023-05-13T01:53:50;15.48;;;12.82;;
31596;SDS011;18201;50.978;7.034;2023-05-13T01:54:22;15.65;;;12.55;;
31596;SDS011;18201;50.978;7.034;2023-05-13T01:54:52;14.27;;;12.63;;
31596;SDS011;18201;50.978;7.034;2023-05-13T01:55:24;12.80;;;11.60;;
31596;SDS011;18201;50.978;7.034;2023-05-13T01:55:56;12.88;;;11.60;;
31596;SDS011;18201;50.978;7.034;2023-05-13T01:56:27;12.90;;;11.48;;
31596;SDS011;18201;50.978;7.034;2023-05-13T01:56:59;14.07;;;12.40;;
31596;SDS011;18201;50.978;7.034;2023-05-13T01:57:29;15.02;;;12.88;;
31596;SDS011;18201;50.978;7.034;2023-05-13T01:58:00;13.75;;;12.35;;
31596;SDS011;18201;50.978;7.034;2023-05-13T01:58:32;13.88;;;12.02;;
31596;SDS011;18201;50.978;7.034;2023-05-13T01:59:03;13.18;;;11.95;;
31596;SDS011;18201;50.978;7.034;2023-05-13T01:59:34;14.43;;;13.02;;
31596;SDS011;18201;50.978;7.034;2023-05-13T02:00:07;14.98;;;11.75;;
31596;SDS011;18201;50.978;7.034;2023-05-13T02:00:38;14.57;;;13.02;;
31596;SDS011;18201;50.978;7.034;2023-05-13T02:01:09;12.60;;;11.32;;
31596;SDS011;18201;50.978;7.034;2023-05-13T02:01:40;12.70;;;11.45;;
31596;SDS011;18201;50.978;7.034;2023-05-13T02:02:14;14.85;;;12.27;;
31596;SDS011;18201;50.978;7.034;2023-05-13T02:02:44;15.18;;;11.68;;
31596;SDS011;18201;50.978;7.034;2023-05-13T02:03:16;14.20;;;12.20;;
31596;SDS011;18201;50.978;7.034;2023-05-13T02:03:48;12.50;;;11.40;;
31596;SDS011;18201;50.978;7.034;2023-05-13T02:04:19;13.35;;;12.13;;
31596;SDS011;18201;50.978;7.034;2023-05-13T02:04:50;15.98;;;12.20;;
31596;SDS011;18201;50.978;7.034;2023-05-13T02:05:21;16.30;;;12.00;;
31596;SDS011;18201;50.978;7.034;2023-05-13T02:05:53;13.38;;;12.00;;
31596;SDS011;18201;50.978;7.034;2023-05-13T02:06:24;15.10;;;12.18;;
31596;SDS011;18201;50.978;7.034;2023-05-13T02:06:56;13.57;;;12.18;;
31596;SDS011;18201;50.978;7.034;2023-05-13T02:07:30;13.25;;;11.88;;
31596;SDS011;18201;50.978;7.034;2023-05-13T02:08:01;12.77;;;11.68;;
31596;SDS011;18201;50.978;7.034;2023-05-13T02:08:32;13.35;;;12.00;;
31596;SDS011;18201;50.978;7.034;2023-05-13T02:09:05;13.23;;;11.82;;
31596;SDS011;18201;50.978;7.034;2023-05-13T02:09:36;14.77;;;12.52;;
31596;SDS011;18201;50.978;7.034;2023-05-13T02:10:07;13.88;;;12.57;;
31596;SDS011;18201;50.978;7.034;2023-05-13T02:10:40;13.98;;;12.07;;
31596;SDS011;18201;50.978;7.034;2023-05-13T02:11:11;14.88;;;12.10;;
31596;SDS011;18201;50.978;7.034;2023-05-13T02:11:42;12.75;;;11.43;;
31596;SDS011;18201;50.978;7.034;2023-05-13T02:12:15;14.15;;;11.95;;
31596;SDS011;18201;50.978;7.034;2023-05-13T02:12:46;13.45;;;11.82;;
31596;SDS011;18201;50.978;7.034;2023-05-13T02:13:17;15.43;;;12.27;;
31596;SDS011;18201;50.978;7.034;2023-05-13T02:13:48;14.50;;;12.25;;
31596;SDS011;18201;50.978;7.034;2023-05-13T02:14:20;14.27;;;11.80;;
31596;SDS011;18201;50.978;7.034;2023-05-13T02:14:51;13.63;;;12.38;;
31596;SDS011;18201;50.978;7.034;2023-05-13T02:15:23;14.70;;;12.00;;
31596;SDS011;18201;50.978;7.034;2023-05-13T02:15:54;13.65;;;12.20;;
31596;SDS011;18201;50.978;7.034;2023-05-13T02:16:25;12.93;;;11.63;;
31596;SDS011;18201;50.978;7.034;2023-05-13T02:16:57;12.77;;;11.55;;
31596;SDS011;18201;50.978;7.034;2023-05-13T02:17:28;13.18;;;11.90;;
31596;SDS011;18201;50.978;7.034;2023-05-13T02:17:59;12.77;;;11.52;;
31596;SDS011;18201;50.978;7.034;2023-05-13T02:18:31;13.57;;;12.30;;
31596;SDS011;18201;50.978;7.034;2023-05-13T02:19:01;13.57;;;11.80;;
31596;SDS011;18201;50.978;7.034;2023-05-13T02:19:32;13.82;;;12.45;;
31596;SDS011;18201;50.978;7.034;2023-05-13T02:20:05;13.32;;;11.85;;
31596;SDS011;18201;50.978;7.034;2023-05-13T02:20:37;14.35;;;12.48;;
31596;SDS011;18201;50.978;7.034;2023-05-13T02:21:08;15.63;;;12.13;;
31596;SDS011;18201;50.978;7.034;2023-05-13T02:21:40;13.55;;;12.15;;
31596;SDS011;18201;50.978;7.034;2023-05-13T02:22:13;12.98;;;11.70;;
31596;SDS011;18201;50.978;7.034;2023-05-13T02:22:45;14.15;;;11.60;;
31596;SDS011;18201;50.978;7.034;2023-05-13T02:23:17;13.10;;;11.48;;
31596;SDS011;18201;50.978;7.034;2023-05-13T02:23:48;13.23;;;11.32;;
31596;SDS011;18201;50.978;7.034;2023-05-13T02:24:19;12.73;;;11.40;;
31596;SDS011;18201;50.978;7.034;2023-05-13T02:24:51;12.57;;;11.35;;
31596;SDS011;18201;50.978;7.034;2023-05-13T02:25:22;13.65;;;11.35;;
31596;SDS011;18201;50.978;7.034;2023-05-13T02:25:53;12.75;;;11.57;;
31596;SDS011;18201;50.978;7.034;2023-05-13T02:26:24;12.75;;;11.65;;
31596;SDS011;18201;50.978;7.034;2023-05-13T02:26:55;14.70;;;11.27;;
31596;SDS011;18201;50.978;7.034;2023-05-13T02:27:26;12.55;;;10.95;;
31596;SDS011;18201;50.978;7.034;2023-05-13T02:27:57;13.20;;;11.90;;
31596;SDS011;18201;50.978;7.034;2023-05-13T02:28:29;11.95;;;10.88;;
31596;SDS011;18201;50.978;7.034;2023-05-13T02:29:00;12.23;;;11.02;;
31596;SDS011;18201;50.978;7.034;2023-05-13T02:29:31;12.13;;;10.98;;
31596;SDS011;18201;50.978;7.034;2023-05-13T02:30:04;12.30;;;11.10;;
31596;SDS011;18201;50.978;7.034;2023-05-13T02:30:37;12.32;;;11.02;;
31596;SDS011;18201;50.978;7.034;2023-05-13T02:31:08;16.55;;;12.13;;
31596;SDS011;18201;50.978;7.034;2023-05-13T02:31:40;13.75;;;11.57;;
31596;SDS011;18201;50.978;7.034;2023-05-13T02:32:12;12.88;;;11.32;;
31596;SDS011;18201;50.978;7.034;2023-05-13T02:32:43;13.68;;;11.32;;
31596;SDS011;18201;50.978;7.034;2023-05-13T02:33:15;12.23;;;10.95;;
31596;SDS011;18201;50.978;7.034;2023-05-13T02:33:46;13.10;;;11.50;;
31596;SDS011;18201;50.978;7.034;2023-05-13T02:34:18;12.70;;;11.38;;
31596;SDS011;18201;50.978;7.034;2023-05-13T02:34:50;13.98;;;10.82;;
31596;SDS011;18201;50.978;7.034;2023-05-13T02:35:21;15.23;;;12.20;;
31596;SDS011;18201;50.978;7.034;2023-05-13T02:35:53;12.75;;;11.45;;
31596;SDS011;18201;50.978;7.034;2023-05-13T02:36:25;11.80;;;10.45;;
31596;SDS011;18201;50.978;7.034;2023-05-13T02:36:56;12.60;;;11.35;;
31596;SDS011;18201;50.978;7.034;2023-05-13T02:37:28;12.15;;;10.70;;
31596;SDS011;18201;50.978;7.034;2023-05-13T02:38:00;16.30;;;12.23;;
31596;SDS011;18201;50.978;7.034;2023-05-13T02:38:33;14.07;;;11.80;;
31596;SDS011;18201;50.978;7.034;2023-05-13T02:39:04;12.77;;;11.65;;
31596;SDS011;18201;50.978;7.034;2023-05-13T02:39:35;14.80;;;12.38;;
31596;SDS011;18201;50.978;7.034;2023-05-13T02:40:07;12.73;;;11.63;;
31596;SDS011;18201;50.978;7.034;2023-05-13T02:40:39;12.68;;;11.50;;
31596;SDS011;18201;50.978;7.034;2023-05-13T02:41:10;14.13;;;11.85;;
31596;SDS011;18201;50.978;7.034;2023-05-13T02:41:40;12.85;;;11.65;;
31596;SDS011;18201;50.978;7.034;2023-05-13T02:42:13;13.23;;;11.88;;
31596;SDS011;18201;50.978;7.034;2023-05-13T02:42:44;12.32;;;11.07;;
31596;SDS011;18201;50.978;7.034;2023-05-13T02:43:15;15.00;;;12.27;;
31596;SDS011;18201;50.978;7.034;2023-05-13T02:43:47;11.98;;;10.82;;
31596;SDS011;18201;50.978;7.034;2023-05-13T02:44:17;14.27;;;11.65;;
31596;SDS011;18201;50.978;7.034;2023-05-13T02:44:48;12.93;;;11.73;;
31596;SDS011;18201;50.978;7.034;2023-05-13T02:45:19;11.90;;;10.80;;
31596;SDS011;18201;50.978;7.034;2023-05-13T02:45:51;12.52;;;11.23;;
31596;SDS011;18201;50.978;7.034;2023-05-13T02:46:24;11.90;;;10.80;;
31596;SDS011;18201;50.978;7.034;2023-05-13T02:46:55;14.88;;;11.68;;
31596;SDS011;18201;50.978;7.034;2023-05-13T02:47:26;11.82;;;10.52;;
31596;SDS011;18201;50.978;7.034;2023-05-13T02:47:57;13.60;;;10.43;;
31596;SDS011;18201;50.978;7.034;2023-05-13T02:48:28;11.85;;;9.93;;
31596;SDS011;18201;50.978;7.034;2023-05-13T02:49:00;12.23;;;10.80;;
31596;SDS011;18201;50.978;7.034;2023-05-13T02:49:31;12.20;;;11.10;;
31596;SDS011;18201;50.978;7.034;2023-05-13T02:50:02;12.27;;;10.50;;
31596;SDS011;18201;50.978;7.034;2023-05-13T02:50:37;12.73;;;11.55;;
31596;SDS011;18201;50.978;7.034;2023-05-13T02:51:09;13.32;;;11.93;;
31596;SDS011;18201;50.978;7.034;2023-05-13T02:51:40;12.32;;;11.23;;
31596;SDS011;18201;50.978;7.034;2023-05-13T02:52:12;12.10;;;11.00;;
31596;SDS011;18201;50.978;7.034;2023-05-13T02:52:44;14.13;;;11.45;;
31596;SDS011;18201;50.978;7.034;2023-05-13T02:53:15;13.07;;;11.77;;
31596;SDS011;18201;50.978;7.034;2023-05-13T02:53:47;11.23;;;10.20;;
31596;SDS011;18201;50.978;7.034;2023-05-13T02:54:18;12.10;;;10.88;;
31596;SDS011;18201;50.978;7.034;2023-05-13T02:54:48;12.48;;;11.30;;
31596;SDS011;18201;50.978;7.034;2023-05-13T02:55:20;12.30;;;10.95;;
31596;SDS011;18201;50.978;7.034;2023-05-13T02:55:51;13.30;;;12.00;;
31596;SDS011;18201;50.978;7.034;2023-05-13T02:56:23;13.55;;;12.13;;
31596;SDS011;18201;50.978;7.034;2023-05-13T02:56:55;13.82;;;12.40;;
31596;SDS011;18201;50.978;7.034;2023-05-13T02:57:26;15.90;;;11.73;;
31596;SDS011;18201;50.978;7.034;2023-05-13T02:57:56;14.02;;;12.50;;
31596;SDS011;18201;50.978;7.034;2023-05-13T02:58:28;17.38;;;12.10;;
31596;SDS011;18201;50.978;7.034;2023-05-13T02:58:59;13.60;;;12.27;;
31596;SDS011;18201;50.978;7.034;2023-05-13T02:59:30;14.25;;;12.65;;
31596;SDS011;18201;50.978;7.034;2023-05-13T03:00:01;13.30;;;11.95;;
31596;SDS011;18201;50.978;7.034;2023-05-13T03:00:33;13.25;;;11.93;;
31596;SDS011;18201;50.978;7.034;2023-05-13T03:01:04;12.90;;;11.23;;
31596;SDS011;18201;50.978;7.034;2023-05-13T03:01:36;13.10;;;11.80;;
31596;SDS011;18201;50.978;7.034;2023-05-13T03:02:07;12.65;;;11.45;;
31596;SDS011;18201;50.978;7.034;2023-05-13T03:02:38;12.57;;;11.45;;
31596;SDS011;18201;50.978;7.034;2023-05-13T03:03:09;17.00;;;11.60;;
31596;SDS011;18201;50.978;7.034;2023-05-13T03:03:41;12.30;;;11.00;;
31596;SDS011;18201;50.978;7.034;2023-05-13T03:04:12;12.80;;;11.48;;
31596;SDS011;18201;50.978;7.034;2023-05-13T03:04:42;12.60;;;11.27;;
31596;SDS011;18201;50.978;7.034;2023-05-13T03:05:14;12.35;;;11.05;;
31596;SDS011;18201;50.978;7.034;2023-05-13T03:05:45;13.65;;;12.27;;
31596;SDS011;18201;50.978;7.034;2023-05-13T03:06:16;14.40;;;12.20;;
31596;SDS011;18201;50.978;7.034;2023-05-13T03:06:49;14.30;;;11.95;;
31596;SDS011;18201;50.978;7.034;2023-05-13T03:07:22;12.85;;;11.05;;
31596;SDS011;18201;50.978;7.034;2023-05-13T03:07:54;11.93;;;10.93;;
31596;SDS011;18201;50.978;7.034;2023-05-13T03:16:30;13.35;;;11.40;;
31596;SDS011;18201;50.978;7.034;2023-05-13T03:17:02;14.77;;;11.05;;
31596;SDS011;18201;50.978;7.034;2023-05-13T03:17:33;12.55;;;11.35;;
31596;SDS011;18201;50.978;7.034;2023-05-13T03:18:04;13.15;;;11.80;;
31596;SDS011;18201;50.978;7.034;2023-05-13T03:18:36;13.38;;;12.05;;